Time;durP1;ratioP1;P1;durP2;ratioP2;P2;SDS_P1;SDS_P2;PMS_P1;PMS_P2;Temp;Humidity;BMP_temperature;BMP_pressure;BME280_temperature;BME280_humidity;BME280_pressure;Samples;Min_cycle;Max_cycle;Signal;HPM_P1;HPM_P2
2023/10/30 00:00:53;;;;;;;7.10;4.80;;;;;;;16.15;69.18;99896.88;5073479;28;20280;-66
2023/10/30 00:03:20;;;;;;;13.03;5.37;;;;;;;16.15;68.73;99902.25;5055488;28;20208;-65
2023/10/30 00:05:47;;;;;;;7.10;5.00;;;;;;;16.16;68.61;99906.59;5053524;28;20254;-66
2023/10/30 00:08:13;;;;;;;6.50;5.00;;;;;;;16.17;68.93;99894.81;5053080;28;20664;-65
2023/10/30 00:10:40;;;;;;;9.17;5.30;;;;;;;16.17;69.12;99892.16;5053397;28;20196;-65
2023/10/30 00:13:08;;;;;;;8.23;4.73;;;;;;;16.12;69.76;99892.78;5052873;28;20193;-64
2023/10/30 00:15:35;;;;;;;10.03;4.80;;;;;;;16.02;69.64;99891.66;5053372;28;20188;-64
2023/10/30 00:18:01;;;;;;;5.93;4.70;;;;;;;16.00;69.50;99888.41;5052913;28;20256;-65
2023/10/30 00:20:28;;;;;;;8.47;5.33;;;;;;;16.00;69.18;99888.41;5053265;28;20265;-64
2023/10/30 00:22:55;;;;;;;9.00;5.20;;;;;;;15.98;70.00;99895.81;5052658;28;20645;-65
2023/10/30 00:25:21;;;;;;;9.43;4.80;;;;;;;15.97;69.74;99891.50;5053136;28;20189;-65
2023/10/30 00:27:48;;;;;;;5.17;4.60;;;;;;;16.00;69.54;99888.41;5051514;28;20260;-65
2023/10/30 00:30:17;;;;;;;9.93;5.27;;;;;;;16.01;69.39;99890.03;5052729;28;20193;-65
2023/10/30 00:32:44;;;;;;;9.90;4.67;;;;;;;16.02;69.01;99892.50;5052892;28;20201;-66
2023/10/30 00:35:11;;;;;;;7.70;4.37;;;;;;;16.02;69.10;99902.38;5052912;28;20192;-65
2023/10/30 00:37:38;;;;;;;9.23;4.60;;;;;;;15.97;69.15;99888.84;5052528;28;20681;-65
2023/10/30 00:40:05;;;;;;;6.40;3.93;;;;;;;15.95;69.07;99891.72;5052780;28;20192;-65
2023/10/30 00:42:33;;;;;;;8.50;4.97;;;;;;;15.97;68.78;99904.91;5055059;28;20224;-66
2023/10/30 00:44:59;;;;;;;6.40;4.70;;;;;;;15.97;68.57;99905.75;5072641;28;20196;-65
2023/10/30 00:47:27;;;;;;;10.30;5.07;;;;;;;15.95;68.59;99907.81;5072763;28;20192;-64
2023/10/30 00:49:54;;;;;;;6.30;4.43;;;;;;;15.88;68.70;99906.25;5072535;28;20196;-65
2023/10/30 00:52:21;;;;;;;6.37;4.63;;;;;;;15.85;68.82;99910.97;5072220;28;20256;-64
2023/10/30 00:54:47;;;;;;;7.33;4.50;;;;;;;15.83;68.91;99910.41;5071193;28;20249;-65
2023/10/30 00:57:14;;;;;;;8.73;4.93;;;;;;;15.82;69.14;99914.09;5072148;28;20625;-65
2023/10/30 00:59:41;;;;;;;4.57;3.90;;;;;;;15.78;69.18;99912.91;5072365;28;20196;-65
2023/10/30 01:02:08;;;;;;;9.47;3.93;;;;;;;15.69;70.62;99908.84;5072363;28;20255;-65
2023/10/30 01:04:36;;;;;;;4.40;3.97;;;;;;;15.61;69.76;99902.97;5071907;28;20188;-65
2023/10/30 01:07:02;;;;;;;8.30;4.20;;;;;;;15.63;69.96;99892.84;5072397;28;20253;-65
2023/10/30 01:09:29;;;;;;;6.03;4.20;;;;;;;15.66;69.26;99898.59;5071907;28;20241;-64
2023/10/30 01:11:56;;;;;;;5.97;4.00;;;;;;;15.66;68.96;99909.31;5072177;28;20195;-65
2023/10/30 01:14:24;;;;;;;5.97;3.93;;;;;;;15.64;68.64;99911.38;5071816;28;20195;-65
2023/10/30 01:16:50;;;;;;;9.47;3.97;;;;;;;15.61;69.13;99901.09;5071845;28;20188;-65
2023/10/30 01:19:17;;;;;;;5.23;3.47;;;;;;;15.60;69.32;99903.97;5071723;28;20279;-65
2023/10/30 01:21:46;;;;;;;5.40;4.43;;;;;;;15.60;69.41;99907.50;5072028;28;20364;-65
2023/10/30 01:24:12;;;;;;;7.27;4.27;;;;;;;15.59;69.08;99902.34;5071651;28;20231;-65
2023/10/30 01:26:40;;;;;;;7.93;4.13;;;;;;;15.59;69.28;99908.53;5071449;28;20637;-65
2023/10/30 01:29:06;;;;;;;7.63;4.83;;;;;;;15.58;69.50;99909.59;5072052;28;20219;-65
2023/10/30 01:31:33;;;;;;;10.27;4.00;;;;;;;15.58;69.82;99904.22;5071953;28;20207;-65
2023/10/30 01:34:00;;;;;;;5.17;4.23;;;;;;;15.60;69.29;99907.50;5071814;28;20265;-66
2023/10/30 01:36:26;;;;;;;5.53;3.60;;;;;;;15.56;69.32;99908.16;5071908;28;20196;-65
2023/10/30 01:38:55;;;;;;;5.90;4.30;;;;;;;15.55;69.08;99910.00;5070610;28;20250;-67
2023/10/30 01:41:21;;;;;;;6.33;4.10;;;;;;;15.55;69.58;99907.34;5071657;28;20223;-65
2023/10/30 01:43:48;;;;;;;9.67;4.70;;;;;;;15.49;70.05;99907.38;5071362;28;20257;-64
2023/10/30 01:46:15;;;;;;;4.33;3.70;;;;;;;15.47;69.75;99899.56;5071732;28;20195;-65
2023/10/30 01:48:42;;;;;;;4.53;4.13;;;;;;;15.53;69.56;99908.59;5071287;28;20241;-66
2023/10/30 01:51:09;;;;;;;4.80;4.40;;;;;;;15.57;69.51;99915.94;5071675;28;20219;-65
2023/10/30 01:53:37;;;;;;;7.10;4.17;;;;;;;15.61;69.17;99911.78;5071333;28;20674;-65
2023/10/30 01:56:07;;;;;;;9.03;4.20;;;;;;;15.58;69.35;99911.44;5071725;28;20192;-65
2023/10/30 01:58:34;;;;;;;8.47;4.27;;;;;;;15.58;69.95;99906.91;5071345;28;20253;-65
2023/10/30 02:01:02;;;;;;;5.30;3.73;;;;;;;15.61;69.49;99911.78;5071526;28;20188;-65
2023/10/30 02:03:29;;;;;;;6.50;3.77;;;;;;;15.60;70.03;99909.34;5071307;28;20203;-65
2023/10/30 02:05:55;;;;;;;8.87;3.97;;;;;;;15.62;69.67;99913.47;5071524;28;20225;-66
2023/10/30 02:08:23;;;;;;;7.37;3.83;;;;;;;15.65;69.69;99915.69;5071311;28;20615;-65
2023/10/30 02:10:49;;;;;;;5.47;3.93;;;;;;;15.67;69.04;99916.31;5071469;28;20623;-65
2023/10/30 02:13:17;;;;;;;7.37;3.47;;;;;;;15.66;69.22;99909.31;5071572;28;20207;-66
2023/10/30 02:15:44;;;;;;;11.13;3.77;;;;;;;15.67;69.35;99913.63;5071142;28;20290;-66
2023/10/30 02:18:11;;;;;;;4.00;3.47;;;;;;;15.67;69.21;99915.47;5070682;28;20686;-66
2023/10/30 02:20:38;;;;;;;5.30;3.67;;;;;;;15.72;69.09;99913.78;5071381;28;20238;-66
2023/10/30 02:23:05;;;;;;;3.93;3.37;;;;;;;15.73;68.96;99923.44;5071459;28;20281;-65
2023/10/30 02:25:33;;;;;;;3.63;3.30;;;;;;;15.69;69.98;99914.22;5071024;28;20268;-65
2023/10/30 02:28:00;;;;;;;3.83;3.50;;;;;;;15.55;69.69;99911.84;5070491;28;20267;-66
2023/10/30 02:30:27;;;;;;;4.27;3.10;;;;;;;15.53;69.70;99914.75;5070867;28;20309;-65
2023/10/30 02:32:54;;;;;;;3.97;3.57;;;;;;;15.58;69.83;99912.25;5071309;28;20196;-66
2023/10/30 02:35:21;;;;;;;4.47;3.40;;;;;;;15.55;70.92;99917.22;5071414;28;20242;-65
2023/10/30 02:37:48;;;;;;;4.63;3.53;;;;;;;15.54;69.39;99913.72;5071346;28;20196;-66
2023/10/30 02:40:15;;;;;;;9.33;3.60;;;;;;;15.49;69.94;99924.25;5071263;28;20225;-65
2023/10/30 02:42:43;;;;;;;5.00;3.40;;;;;;;15.42;71.21;99911.94;5071061;28;20223;-66
2023/10/30 02:45:11;;;;;;;5.10;3.67;;;;;;;15.25;71.37;99917.00;5070819;28;20643;-65
2023/10/30 02:47:38;;;;;;;4.93;4.00;;;;;;;15.24;71.29;99920.69;5070857;28;20675;-65
2023/10/30 02:50:05;;;;;;;8.83;4.13;;;;;;;15.30;70.74;99919.84;5071672;28;20195;-66
2023/10/30 02:52:32;;;;;;;3.67;3.20;;;;;;;15.30;71.43;99921.69;5074554;28;20290;-66
2023/10/30 02:54:59;;;;;;;7.30;3.93;;;;;;;15.37;71.60;99925.19;5074456;28;20241;-65
2023/10/30 02:57:26;;;;;;;7.53;3.93;;;;;;;15.46;70.62;99924.69;5074814;28;20192;-65
2023/10/30 02:59:54;;;;;;;8.00;4.03;;;;;;;15.55;70.17;99928.75;5074692;28;20612;-65
2023/10/30 03:02:20;;;;;;;5.30;3.63;;;;;;;15.59;69.84;99932.63;5074284;28;20717;-66
2023/10/30 03:04:47;;;;;;;4.80;3.83;;;;;;;15.62;69.44;99931.38;5074543;28;20199;-66
2023/10/30 03:07:15;;;;;;;6.07;3.93;;;;;;;15.63;68.80;99936.53;5074603;28;20267;-66
2023/10/30 03:09:42;;;;;;;5.37;3.67;;;;;;;15.67;69.61;99932.38;5074493;28;20196;-66
2023/10/30 03:12:08;;;;;;;3.97;3.40;;;;;;;15.70;68.96;99933.78;5073522;28;20257;-66
2023/10/30 03:14:35;;;;;;;5.90;3.77;;;;;;;15.71;69.11;99928.22;5074364;28;20196;-66
2023/10/30 03:17:04;;;;;;;4.53;4.10;;;;;;;15.71;68.83;99920.19;5074140;28;20231;-67
2023/10/30 03:19:30;;;;;;;5.50;4.07;;;;;;;15.70;68.97;99926.59;5072675;28;20633;-66
2023/10/30 03:21:57;;;;;;;7.93;3.63;;;;;;;15.61;69.16;99933.22;5074162;28;20261;-67
2023/10/30 03:24:24;;;;;;;5.20;3.37;;;;;;;15.45;69.54;99938.31;5074303;28;20345;-65
2023/10/30 03:26:51;;;;;;;5.37;3.40;;;;;;;15.29;69.24;99928.06;5073662;28;20763;-66
2023/10/30 03:29:17;;;;;;;10.13;4.30;;;;;;;15.08;69.66;99936.44;5073385;28;20188;-66
2023/10/30 03:31:44;;;;;;;6.20;3.73;;;;;;;14.91;70.36;99936.09;5073719;28;20196;-65
2023/10/30 03:34:15;;;;;;;7.73;4.27;;;;;;;14.84;70.66;99929.97;5073763;28;20192;-65
2023/10/30 03:36:42;;;;;;;6.23;4.20;;;;;;;14.74;71.08;99926.91;5074063;28;20215;-65
2023/10/30 03:39:09;;;;;;;6.87;3.90;;;;;;;14.77;71.96;99928.34;5073985;28;20200;-65
2023/10/30 03:41:37;;;;;;;5.30;3.63;;;;;;;14.80;72.00;99928.75;5073854;28;20191;-67
2023/10/30 03:44:04;;;;;;;5.80;4.30;;;;;;;14.80;71.49;99930.59;5073937;28;20199;-66
2023/10/30 03:46:30;;;;;;;10.10;4.43;;;;;;;14.74;72.43;99926.91;5073540;28;20199;-66
2023/10/30 03:48:57;;;;;;;12.90;4.83;;;;;;;14.76;71.97;99927.53;5073464;28;20577;-66
2023/10/30 03:51:25;;;;;;;12.33;4.43;;;;;;;14.80;72.16;99936.78;5073774;28;20228;-66
2023/10/30 03:53:52;;;;;;;6.77;4.90;;;;;;;14.83;71.36;99935.53;5072803;28;20574;-66
2023/10/30 03:56:19;;;;;;;8.53;4.60;;;;;;;14.82;71.22;99931.19;5073420;28;20187;-65
2023/10/30 03:58:46;;;;;;;4.63;4.20;;;;;;;14.65;71.31;99930.03;5073705;28;20188;-66
2023/10/30 04:01:12;;;;;;;9.73;4.67;;;;;;;14.65;71.93;99936.22;5072998;28;20196;-66
2023/10/30 04:03:39;;;;;;;7.17;4.27;;;;;;;14.69;72.32;99932.09;5072004;28;20257;-66
2023/10/30 04:06:06;;;;;;;5.40;4.57;;;;;;;14.73;71.65;99929.78;5073389;28;20249;-65
2023/10/30 04:08:34;;;;;;;7.80;4.37;;;;;;;14.69;71.87;99936.59;5073521;28;20249;-65
2023/10/30 04:11:01;;;;;;;5.37;3.80;;;;;;;14.62;71.32;99936.63;5073312;28;20203;-66
2023/10/30 04:13:28;;;;;;;7.83;3.80;;;;;;;14.52;71.83;99941.59;5073342;28;20245;-65
2023/10/30 04:15:54;;;;;;;5.67;3.40;;;;;;;14.46;71.69;99942.44;5072922;28;20196;-66
2023/10/30 04:18:21;;;;;;;12.43;4.40;;;;;;;14.48;72.02;99927.03;5073021;28;20664;-65
2023/10/30 04:20:48;;;;;;;27.43;4.53;;;;;;;14.46;71.58;99936.28;5073023;28;20200;-65
2023/10/30 04:23:14;;;;;;;6.87;4.17;;;;;;;14.42;72.35;99935.88;5072734;28;20224;-65
2023/10/30 04:25:42;;;;;;;6.40;3.50;;;;;;;14.37;71.75;99933.00;5072796;28;20200;-66
2023/10/30 04:28:09;;;;;;;10.50;4.13;;;;;;;14.30;72.24;99932.19;5072383;28;20296;-65
2023/10/30 04:30:36;;;;;;;4.97;4.07;;;;;;;14.19;72.97;99932.00;5072733;28;20617;-66
2023/10/30 04:33:03;;;;;;;16.57;5.23;;;;;;;14.11;73.13;99932.19;5072631;28;20575;-65
2023/10/30 04:35:29;;;;;;;8.90;4.17;;;;;;;14.07;73.51;99930.97;5072807;28;20188;-66
2023/10/30 04:37:56;;;;;;;16.70;4.77;;;;;;;13.99;73.60;99939.19;5072436;28;20234;-66
2023/10/30 04:40:23;;;;;;;10.60;4.70;;;;;;;13.87;73.72;99940.84;5072591;28;20203;-65
2023/10/30 04:42:51;;;;;;;6.13;4.40;;;;;;;13.77;74.19;99946.59;5072166;28;20216;-66
2023/10/30 04:45:18;;;;;;;7.97;3.97;;;;;;;13.71;75.79;99931.41;5072399;28;20663;-65
2023/10/30 04:47:45;;;;;;;6.77;4.40;;;;;;;13.82;75.46;99944.16;5072263;28;20200;-66
2023/10/30 04:50:11;;;;;;;8.30;4.73;;;;;;;13.90;74.87;99937.78;5072631;28;20261;-66
2023/10/30 04:52:38;;;;;;;12.23;4.70;;;;;;;13.99;74.67;99939.19;5072529;28;20269;-65
2023/10/30 04:55:06;;;;;;;6.40;4.67;;;;;;;14.03;73.56;99949.28;5072542;28;20192;-65
2023/10/30 04:57:32;;;;;;;7.13;4.83;;;;;;;13.97;73.02;99944.75;5072458;28;20269;-65
2023/10/30 05:00:00;;;;;;;6.17;4.93;;;;;;;13.94;73.64;99945.19;5072447;28;20192;-65
2023/10/30 05:02:27;;;;;;;7.97;4.47;;;;;;;13.97;73.54;99949.28;5071438;28;20737;-65
2023/10/30 05:04:54;;;;;;;8.30;4.90;;;;;;;13.98;74.50;99943.75;5072093;28;20624;-66
2023/10/30 05:07:20;;;;;;;13.17;5.17;;;;;;;13.96;73.46;99947.63;5072207;28;20192;-65
2023/10/30 05:09:47;;;;;;;7.70;4.80;;;;;;;13.85;73.42;99941.06;5071985;28;20230;-65
2023/10/30 05:12:14;;;;;;;11.53;5.50;;;;;;;13.84;74.42;99950.09;5072161;28;20196;-66
2023/10/30 05:14:41;;;;;;;14.43;5.13;;;;;;;13.94;74.35;99952.38;5071860;28;20218;-65
2023/10/30 05:17:09;;;;;;;8.77;5.03;;;;;;;14.03;73.55;99951.13;5072016;28;20245;-65
2023/10/30 05:19:35;;;;;;;6.53;5.90;;;;;;;14.15;73.38;99958.31;5072112;28;20268;-70
2023/10/30 05:22:02;;;;;;;12.80;4.70;;;;;;;14.57;74.05;99960.50;5072070;28;20192;-65
2023/10/30 05:24:29;;;;;;;8.60;5.23;;;;;;;14.89;70.68;99967.59;5071948;28;20276;-65
2023/10/30 05:26:55;;;;;;;5.50;4.57;;;;;;;15.06;70.60;99971.44;5071138;28;20232;-66
2023/10/30 05:29:22;;;;;;;7.47;4.93;;;;;;;15.11;69.32;99979.63;5071479;28;20192;-66
2023/10/30 05:31:49;;;;;;;8.20;3.93;;;;;;;15.31;71.86;99969.66;5071374;28;20627;-63
2023/10/30 05:34:17;;;;;;;7.10;4.87;;;;;;;15.64;67.56;99974.81;5071002;28;20200;-63
2023/10/30 05:36:43;;;;;;;6.27;4.17;;;;;;;15.72;68.55;99978.06;5070796;28;20196;-63
2023/10/30 05:39:10;;;;;;;7.13;4.70;;;;;;;16.18;68.90;99971.50;5069626;28;20627;-62
2023/10/30 05:41:37;;;;;;;8.90;4.60;;;;;;;16.88;67.02;99973.66;5069623;28;20684;-63
2023/10/30 05:44:05;;;;;;;7.80;5.40;;;;;;;17.53;63.41;99972.84;5070626;28;20219;-62
2023/10/30 05:46:31;;;;;;;6.00;4.47;;;;;;;18.10;61.08;99986.41;5071040;28;20553;-62
2023/10/30 05:48:59;;;;;;;13.17;4.83;;;;;;;18.66;59.52;99985.84;5070917;28;20236;-62
2023/10/30 05:51:27;;;;;;;12.20;5.50;;;;;;;19.15;58.07;99993.34;5071541;28;20196;-61
2023/10/30 05:53:53;;;;;;;23.13;6.60;;;;;;;19.62;55.63;99992.13;5071154;28;20625;-62
2023/10/30 05:56:20;;;;;;;14.37;5.77;;;;;;;20.01;54.68;100001.97;5071277;28;20195;-62
2023/10/30 05:58:47;;;;;;;21.47;5.97;;;;;;;20.36;53.01;100000.69;5069341;28;20636;-62
2023/10/30 06:01:13;;;;;;;5.93;5.03;;;;;;;20.66;50.65;100013.78;5069921;28;20253;-62
2023/10/30 06:03:40;;;;;;;17.20;5.33;;;;;;;20.94;50.47;100013.69;5069853;28;20337;-61
2023/10/30 06:06:07;;;;;;;13.07;5.23;;;;;;;21.11;49.11;100011.72;5070010;28;20242;-62
2023/10/30 06:08:36;;;;;;;10.63;4.90;;;;;;;21.27;49.78;100016.25;5069535;28;20501;-61
2023/10/30 06:11:03;;;;;;;13.67;5.10;;;;;;;21.43;47.63;100009.97;5068697;28;20203;-61
2023/10/30 06:13:30;;;;;;;9.37;4.33;;;;;;;21.71;48.11;100015.16;5067515;28;20195;-62
2023/10/30 06:15:56;;;;;;;11.77;4.93;;;;;;;21.47;46.11;100021.09;5070291;28;20245;-60
2023/10/30 06:18:24;;;;;;;23.00;5.37;;;;;;;21.11;47.48;100019.03;5070591;28;20188;-60
2023/10/30 06:20:50;;;;;;;5.03;4.37;;;;;;;20.90;50.57;100017.13;5060380;28;20722;-60
2023/10/30 06:23:17;;;;;;;9.90;4.60;;;;;;;20.61;48.59;100019.13;5070172;28;20761;-60
2023/10/30 06:25:45;;;;;;;15.00;4.77;;;;;;;20.40;49.58;100018.03;5072420;28;20677;-59
2023/10/30 06:28:14;;;;;;;4.77;3.73;;;;;;;20.47;51.38;100020.56;5074122;28;20299;-60
2023/10/30 06:30:41;;;;;;;9.50;4.47;;;;;;;20.98;49.53;100025.63;5074692;28;20204;-60
2023/10/30 06:33:08;;;;;;;7.33;5.07;;;;;;;21.38;48.62;100023.41;5073964;28;20196;-61
2023/10/30 06:35:35;;;;;;;15.67;5.27;;;;;;;21.52;47.46;100032.75;5074328;28;20195;-61
2023/10/30 06:38:01;;;;;;;9.27;4.47;;;;;;;21.33;47.95;100030.66;5073945;28;20245;-60
2023/10/30 06:40:28;;;;;;;8.97;4.70;;;;;;;21.24;47.31;100024.88;5074199;28;20291;-60
2023/10/30 06:42:56;;;;;;;23.53;4.87;;;;;;;21.06;50.12;100025.19;5072853;28;20219;-60
2023/10/30 06:45:23;;;;;;;18.50;4.77;;;;;;;21.31;48.18;100025.50;5074019;28;20195;-61
2023/10/30 06:47:50;;;;;;;6.23;4.43;;;;;;;21.77;47.58;100029.56;5069699;28;20192;-61
2023/10/30 06:50:16;;;;;;;19.27;4.87;;;;;;;22.23;47.15;100029.72;5072489;28;20249;-60
2023/10/30 06:52:43;;;;;;;9.60;4.30;;;;;;;22.45;46.30;100022.28;5072857;28;20250;-61
2023/10/30 06:55:10;;;;;;;16.13;4.23;;;;;;;22.39;46.26;100020.63;5072581;28;20196;-61
2023/10/30 06:57:37;;;;;;;19.73;5.13;;;;;;;22.63;46.38;100024.63;5072435;28;20881;-60
2023/10/30 07:00:06;;;;;;;15.93;4.73;;;;;;;22.87;47.63;100020.41;5072973;28;20201;-61
2023/10/30 07:02:34;;;;;;;10.80;5.20;;;;;;;22.68;46.63;100021.94;5072204;28;20225;-60
2023/10/30 07:05:02;;;;;;;17.43;6.57;;;;;;;22.62;46.36;100022.19;5073197;28;20213;-61
2023/10/30 07:07:28;;;;;;;7.03;4.00;;;;;;;23.03;46.96;100019.41;5073339;28;20197;-62
2023/10/30 07:09:55;;;;;;;9.43;4.03;;;;;;;23.35;45.20;100028.25;5069325;28;20205;-62
2023/10/30 07:12:22;;;;;;;15.27;4.00;;;;;;;23.68;45.96;100027.81;5072700;28;20192;-61
2023/10/30 07:14:49;;;;;;;8.50;4.10;;;;;;;23.87;42.48;100028.94;5073052;28;20206;-60
2023/10/30 07:17:17;;;;;;;10.47;4.50;;;;;;;23.71;43.96;100029.16;5072385;28;20255;-60
2023/10/30 07:19:44;;;;;;;8.53;3.70;;;;;;;23.79;44.96;100018.63;5072835;28;20653;-60
2023/10/30 07:22:10;;;;;;;7.83;3.97;;;;;;;23.96;44.51;100019.19;5070806;28;20209;-60
2023/10/30 07:24:37;;;;;;;12.17;3.80;;;;;;;24.28;44.91;100019.75;5071715;28;20215;-60
2023/10/30 07:27:04;;;;;;;7.43;3.83;;;;;;;24.59;43.11;100026.78;5072229;28;20546;-61
2023/10/30 07:29:31;;;;;;;26.90;4.93;;;;;;;24.84;42.66;100020.53;5073077;28;20188;-61
2023/10/30 07:31:58;;;;;;;15.17;3.40;;;;;;;24.96;42.16;100019.09;5072420;28;20192;-60
2023/10/30 07:34:26;;;;;;;15.80;4.10;;;;;;;25.11;41.69;100014.72;5073085;28;20285;-60
2023/10/30 07:36:52;;;;;;;9.17;3.70;;;;;;;25.37;41.18;100014.38;5071118;28;20724;-61
2023/10/30 07:39:19;;;;;;;13.63;3.87;;;;;;;25.65;41.17;100015.56;5072373;28;20188;-60
2023/10/30 07:41:46;;;;;;;16.80;4.53;;;;;;;25.83;39.96;100013.00;5072572;28;20196;-61
2023/10/30 07:44:13;;;;;;;6.33;3.17;;;;;;;25.87;39.05;100007.78;5072513;28;20218;-60
2023/10/30 07:46:39;;;;;;;5.60;3.33;;;;;;;25.89;38.21;100005.59;5072698;28;20184;-62
2023/10/30 07:49:07;;;;;;;3.73;3.00;;;;;;;25.62;38.31;100014.22;5067303;28;20253;-62
2023/10/30 07:51:36;;;;;;;5.00;3.30;;;;;;;25.56;39.62;100000.94;5067636;28;20214;-64
2023/10/30 07:54:03;;;;;;;7.90;3.40;;;;;;;25.85;39.30;100002.63;5071959;28;20281;-63
2023/10/30 07:56:29;;;;;;;8.50;3.10;;;;;;;26.14;39.26;100003.53;5071551;28;20652;-63
2023/10/30 07:58:56;;;;;;;21.70;3.40;;;;;;;26.40;38.10;100006.84;5071601;28;20196;-63
2023/10/30 08:01:23;;;;;;;15.40;3.57;;;;;;;26.68;38.34;100003.31;5071846;28;20192;-63
2023/10/30 08:03:49;;;;;;;4.33;2.70;;;;;;;26.77;36.56;100007.03;5071983;28;20277;-63
2023/10/30 08:06:16;;;;;;;10.80;3.17;;;;;;;26.83;35.99;100011.34;5071616;28;20188;-63
2023/10/30 08:08:44;;;;;;;7.63;2.50;;;;;;;26.94;37.99;99999.19;5065538;28;20188;-66
2023/10/30 08:11:11;;;;;;;8.43;2.77;;;;;;;26.82;37.60;100001.56;5072273;28;20265;-68
2023/10/30 08:13:38;;;;;;;9.03;2.63;;;;;;;26.66;37.00;99997.34;5072018;28;20203;-70
2023/10/30 08:16:05;;;;;;;5.40;2.53;;;;;;;26.78;37.26;99997.78;5069929;28;20227;-63
2023/10/30 08:18:32;;;;;;;7.33;2.10;;;;;;;26.98;37.18;99994.78;5071071;28;20691;-63
2023/10/30 08:20:59;;;;;;;7.13;2.53;;;;;;;27.19;37.00;99994.25;5071329;28;20260;-64
2023/10/30 08:23:25;;;;;;;4.33;1.87;;;;;;;27.41;36.29;99986.38;5070976;28;20219;-62
2023/10/30 08:25:53;;;;;;;7.23;2.53;;;;;;;27.40;35.04;99992.13;5070921;28;20192;-64
2023/10/30 08:28:21;;;;;;;5.13;2.23;;;;;;;27.17;35.07;99974.66;5065168;28;20369;-63
2023/10/30 08:30:47;;;;;;;3.73;2.30;;;;;;;27.30;34.85;99993.06;5065248;28;20192;-63
2023/10/30 08:33:14;;;;;;;12.70;3.10;;;;;;;27.49;35.14;99993.09;5068457;28;20569;-63
2023/10/30 08:35:41;;;;;;;6.20;2.80;;;;;;;27.68;34.83;99989.25;5066840;28;20192;-64
2023/10/30 08:38:08;;;;;;;7.47;2.37;;;;;;;27.90;34.37;99988.66;5054263;28;20255;-64
2023/10/30 08:40:34;;;;;;;6.47;2.53;;;;;;;27.91;34.52;99985.66;5068184;28;20336;-63
2023/10/30 08:43:02;;;;;;;2.67;2.30;;;;;;;28.02;34.22;99986.28;5066828;28;20254;-64
2023/10/30 08:45:30;;;;;;;10.43;2.93;;;;;;;28.14;34.06;99983.91;5051455;28;20232;-64
2023/10/30 08:47:56;;;;;;;12.23;2.60;;;;;;;28.14;34.25;99990.16;5068325;28;20652;-65
2023/10/30 08:50:23;;;;;;;10.53;2.90;;;;;;;28.23;33.95;99988.41;5070520;28;20192;-64
2023/10/30 08:52:50;;;;;;;4.80;2.27;;;;;;;28.36;33.18;99981.31;5070063;28;20235;-64
2023/10/30 08:55:16;;;;;;;18.20;2.87;;;;;;;28.19;33.17;99981.09;5070742;28;20624;-64
2023/10/30 08:57:43;;;;;;;4.47;2.63;;;;;;;28.07;33.44;99984.28;5070298;28;20192;-68
2023/10/30 09:00:13;;;;;;;7.83;2.40;;;;;;;27.95;33.78;99985.84;5071167;28;20249;-65
2023/10/30 09:02:39;;;;;;;9.90;3.07;;;;;;;27.82;34.54;99978.41;5069769;28;20660;-65
2023/10/30 09:05:07;;;;;;;5.17;2.90;;;;;;;27.74;34.00;99974.41;5069548;28;20278;-64
2023/10/30 09:07:34;;;;;;;4.93;2.40;;;;;;;27.71;34.57;99968.72;5066541;28;20196;-63
2023/10/30 09:10:01;;;;;;;11.63;3.30;;;;;;;27.62;34.71;99974.06;5069837;28;20249;-63
2023/10/30 09:12:27;;;;;;;8.37;2.63;;;;;;;27.54;35.28;99973.91;5071211;28;20196;-65
2023/10/30 09:14:54;;;;;;;10.27;2.40;;;;;;;27.72;35.52;99970.38;5071083;28;20284;-64
2023/10/30 09:17:22;;;;;;;8.00;2.33;;;;;;;27.88;35.24;99969.84;5071168;28;20199;-63
2023/10/30 09:19:49;;;;;;;4.23;2.60;;;;;;;27.96;34.47;99960.16;5071173;28;20196;-63
2023/10/30 09:22:15;;;;;;;4.60;2.50;;;;;;;27.97;34.40;99961.81;5071111;28;20278;-63
2023/10/30 09:24:42;;;;;;;7.27;2.53;;;;;;;27.86;35.47;99955.69;5071137;28;20210;-63
2023/10/30 09:27:09;;;;;;;4.90;2.57;;;;;;;27.89;34.71;99955.06;5070522;28;20277;-64
2023/10/30 09:29:36;;;;;;;6.83;2.60;;;;;;;27.93;35.02;99949.84;5068133;28;20192;-64
2023/10/30 09:32:03;;;;;;;10.73;3.53;;;;;;;27.90;34.67;99944.97;5069405;28;20579;-63
2023/10/30 09:34:31;;;;;;;11.33;2.97;;;;;;;27.60;35.17;99945.44;5070225;28;20678;-62
2023/10/30 09:36:59;;;;;;;61.33;6.87;;;;;;;27.65;35.46;99937.94;5070654;28;20218;-63
2023/10/30 09:39:26;;;;;;;10.00;4.10;;;;;;;27.32;35.38;99936.25;5070275;28;20699;-63
2023/10/30 09:41:54;;;;;;;9.47;3.47;;;;;;;27.00;36.65;99929.88;5070186;28;20622;-62
2023/10/30 09:44:22;;;;;;;4.30;2.37;;;;;;;26.82;35.96;99930.66;5070611;28;20219;-62
2023/10/30 09:46:50;;;;;;;7.33;2.97;;;;;;;26.72;37.30;99922.59;5070902;28;20252;-62
2023/10/30 09:49:18;;;;;;;12.07;2.70;;;;;;;26.86;37.37;99916.13;5069252;28;20184;-62
2023/10/30 09:51:47;;;;;;;5.23;3.23;;;;;;;26.99;37.11;99918.16;5070413;28;20200;-62
2023/10/30 09:54:15;;;;;;;20.50;3.33;;;;;;;27.23;36.04;99918.16;5069735;28;20227;-63
2023/10/30 09:56:44;;;;;;;8.13;3.07;;;;;;;27.47;37.38;99902.47;5070250;28;20245;-61
2023/10/30 09:59:13;;;;;;;35.33;4.97;;;;;;;27.64;35.54;99898.13;5070353;28;20271;-62
2023/10/30 10:01:40;;;;;;;7.17;3.10;;;;;;;27.83;35.16;99901.66;5068747;28;20620;-62
2023/10/30 10:04:06;;;;;;;10.23;3.10;;;;;;;28.01;37.01;99891.81;5069529;28;20226;-62
2023/10/30 10:06:33;;;;;;;5.10;2.33;;;;;;;28.25;36.49;99892.44;5070059;28;20249;-63
2023/10/30 10:09:04;;;;;;;5.50;2.90;;;;;;;28.40;33.60;99895.69;5064113;28;20189;-63
2023/10/30 10:11:33;;;;;;;4.90;2.60;;;;;;;28.24;33.90;99893.53;5050984;28;20189;-63
2023/10/30 10:14:00;;;;;;;3.67;3.00;;;;;;;28.16;34.09;99891.50;5050172;28;20307;-64
2023/10/30 10:16:29;;;;;;;7.77;2.63;;;;;;;27.90;34.25;99896.63;5050522;28;20227;-64
2023/10/30 10:18:55;;;;;;;9.57;2.50;;;;;;;27.75;34.91;99898.75;5062056;28;20605;-63
2023/10/30 10:21:23;;;;;;;6.40;2.83;;;;;;;27.48;35.29;99882.28;5070708;28;20199;-62
2023/10/30 10:23:49;;;;;;;5.87;2.80;;;;;;;27.61;36.50;99887.00;5070345;28;20224;-62
2023/10/30 10:26:18;;;;;;;6.53;2.60;;;;;;;27.49;35.94;99878.44;5069347;28;20744;-63
2023/10/30 10:28:47;;;;;;;2.60;1.83;;;;;;;27.64;36.04;99875.47;5070040;28;20228;-62
2023/10/30 10:31:15;;;;;;;4.67;2.63;;;;;;;27.77;35.16;99874.72;5070680;28;20188;-63
2023/10/30 10:33:42;;;;;;;7.37;2.80;;;;;;;27.77;34.87;99869.25;5070905;28;20199;-63
2023/10/30 10:36:09;;;;;;;9.93;2.93;;;;;;;27.78;35.92;99859.94;5063763;28;20199;-63
2023/10/30 10:38:36;;;;;;;3.77;2.63;;;;;;;27.90;35.14;99852.94;5049587;28;20620;-62
2023/10/30 10:41:05;;;;;;;4.67;2.50;;;;;;;27.97;34.61;99858.00;5061374;28;20218;-62
2023/10/30 10:43:33;;;;;;;7.10;2.80;;;;;;;27.95;34.68;99861.03;5070362;28;20192;-63
2023/10/30 10:46:00;;;;;;;6.27;3.10;;;;;;;27.93;34.65;99854.25;5069433;28;20212;-62
2023/10/30 10:48:28;;;;;;;20.30;4.20;;;;;;;27.78;35.16;99852.56;5068880;28;20190;-62
2023/10/30 10:50:56;;;;;;;33.60;16.27;;;;;;;27.38;36.38;99846.97;5066337;28;20215;-64
2023/10/30 10:53:27;;;;;;;11.27;4.53;;;;;;;27.43;36.36;99842.22;5066713;28;20235;-66
2023/10/30 10:55:59;;;;;;;9.00;5.60;;;;;;;27.47;36.02;99836.97;5066645;28;20249;-62
2023/10/30 10:58:41;;;;;;;22.13;10.87;;;;;;;27.45;37.21;99834.56;5066616;28;20253;-63
2023/10/30 11:01:10;;;;;;;31.97;14.60;;;;;;;27.28;36.76;99828.81;5057473;28;20239;-63
2023/10/30 11:03:38;;;;;;;93.70;37.23;;;;;;;27.40;38.95;99820.19;5061930;28;20253;-64
2023/10/30 11:06:06;;;;;;;8.67;3.80;;;;;;;27.51;37.29;99811.53;5065443;28;20272;-66
2023/10/30 11:08:47;;;;;;;9.67;3.30;;;;;;;27.41;36.63;99822.63;5066279;28;20298;-65
2023/10/30 11:11:21;;;;;;;7.60;3.60;;;;;;;27.38;36.72;99816.94;5067043;28;20608;-66
2023/10/30 11:14:15;;;;;;;9.47;5.13;;;;;;;27.45;37.42;99817.38;5070444;28;20199;-65
2023/10/30 11:16:47;;;;;;;8.63;4.13;;;;;;;27.44;37.28;99810.31;5062305;28;20211;-62
2023/10/30 11:19:19;;;;;;;11.00;5.23;;;;;;;27.46;37.60;99794.44;5070395;28;20188;-65
2023/10/30 11:21:48;;;;;;;6.30;4.03;;;;;;;27.53;37.35;99798.41;5068222;28;20713;-65
2023/10/30 11:24:35;;;;;;;7.83;3.37;;;;;;;27.56;37.62;99792.31;5066374;28;20198;-64
2023/10/30 11:27:02;;;;;;;10.00;5.23;;;;;;;27.28;38.52;99789.81;5065366;28;20364;-65
2023/10/30 11:29:54;;;;;;;13.00;6.53;;;;;;;27.06;38.81;99748.69;5061383;28;20184;-65